sensor_id;sensor_type;location;lat;lon;timestamp;temperature;humidity
23562;DHT22;11959;49.418;8.728;2023-02-28T00:00:51;1.50;99.90
23562;DHT22;11959;49.418;8.728;2023-02-28T00:03:17;1.50;99.90
23562;DHT22;11959;49.418;8.728;2023-02-28T00:05:43;1.60;99.90
23562;DHT22;11959;49.418;8.728;2023-02-28T00:08:09;1.60;99.90
23562;DHT22;11959;49.418;8.728;2023-02-28T00:10:35;1.50;99.90
23562;DHT22;11959;49.418;8.728;2023-02-28T00:13:04;1.60;99.90
23562;DHT22;11959;49.418;8.728;2023-02-28T00:15:31;1.50;99.90
23562;DHT22;11959;49.418;8.728;2023-02-28T00:17:57;1.50;99.90
23562;DHT22;11959;49.418;8.728;2023-02-28T00:20:23;1.40;99.90
23562;DHT22;11959;49.418;8.728;2023-02-28T00:22:51;1.40;99.90
23562;DHT22;11959;49.418;8.728;2023-02-28T00:25:20;1.40;99.90
23562;DHT22;11959;49.418;8.728;2023-02-28T00:27:46;1.30;99.90
23562;DHT22;11959;49.418;8.728;2023-02-28T00:30:14;1.30;99.90
23562;DHT22;11959;49.418;8.728;2023-02-28T00:32:40;1.30;99.90
23562;DHT22;11959;49.418;8.728;2023-02-28T00:35:07;1.20;99.90
23562;DHT22;11959;49.418;8.728;2023-02-28T00:37:33;1.20;99.90
23562;DHT22;11959;49.418;8.728;2023-02-28T00:39:59;1.20;99.90
23562;DHT22;11959;49.418;8.728;2023-02-28T00:42:24;1.20;99.90
23562;DHT22;11959;49.418;8.728;2023-02-28T00:44:50;1.20;99.90
23562;DHT22;11959;49.418;8.728;2023-02-28T00:47:16;1.20;99.90
23562;DHT22;11959;49.418;8.728;2023-02-28T00:49:41;1.20;99.90
23562;DHT22;11959;49.418;8.728;2023-02-28T00:52:07;1.20;99.90
23562;DHT22;11959;49.418;8.728;2023-02-28T00:54:33;1.20;99.90
23562;DHT22;11959;49.418;8.728;2023-02-28T00:56:59;1.20;99.90
23562;DHT22;11959;49.418;8.728;2023-02-28T00:59:25;1.20;99.90
23562;DHT22;11959;49.418;8.728;2023-02-28T01:01:51;1.20;99.90
23562;DHT22;11959;49.418;8.728;2023-02-28T01:04:16;1.20;99.90
23562;DHT22;11959;49.418;8.728;2023-02-28T01:06:42;1.20;99.90
23562;DHT22;11959;49.418;8.728;2023-02-28T01:09:08;1.20;99.90
23562;DHT22;11959;49.418;8.728;2023-02-28T01:11:34;1.10;99.90
23562;DHT22;11959;49.418;8.728;2023-02-28T01:14:01;1.20;99.90
23562;DHT22;11959;49.418;8.728;2023-02-28T01:16:27;1.20;99.90
23562;DHT22;11959;49.418;8.728;2023-02-28T01:18:53;1.20;99.90
23562;DHT22;11959;49.418;8.728;2023-02-28T01:21:23;1.10;99.90
23562;DHT22;11959;49.418;8.728;2023-02-28T01:23:49;1.10;99.90
23562;DHT22;11959;49.418;8.728;2023-02-28T01:26:17;1.10;99.90
23562;DHT22;11959;49.418;8.728;2023-02-28T01:28:43;1.20;99.90
23562;DHT22;11959;49.418;8.728;2023-02-28T01:31:10;1.10;99.90
23562;DHT22;11959;49.418;8.728;2023-02-28T01:33:36;1.10;99.90
23562;DHT22;11959;49.418;8.728;2023-02-28T01:38:29;1.00;99.90
23562;DHT22;11959;49.418;8.728;2023-02-28T01:40:55;1.00;99.90
23562;DHT22;11959;49.418;8.728;2023-02-28T01:45:46;1.10;99.90
23562;DHT22;11959;49.418;8.728;2023-02-28T01:48:12;1.00;99.90
23562;DHT22;11959;49.418;8.728;2023-02-28T01:50:41;0.90;99.90
23562;DHT22;11959;49.418;8.728;2023-02-28T01:53:11;1.00;99.90
23562;DHT22;11959;49.418;8.728;2023-02-28T01:55:39;0.90;99.90
23562;DHT22;11959;49.418;8.728;2023-02-28T01:58:06;1.00;99.90
23562;DHT22;11959;49.418;8.728;2023-02-28T02:00:34;1.00;99.90
23562;DHT22;11959;49.418;8.728;2023-02-28T02:03:06;1.00;99.90
23562;DHT22;11959;49.418;8.728;2023-02-28T02:05:37;1.00;99.90
23562;DHT22;11959;49.418;8.728;2023-02-28T02:08:05;0.90;99.90
23562;DHT22;11959;49.418;8.728;2023-02-28T02:10:35;1.00;99.90
23562;DHT22;11959;49.418;8.728;2023-02-28T02:13:30;0.90;99.90
23562;DHT22;11959;49.418;8.728;2023-02-28T02:16:34;0.90;99.90
23562;DHT22;11959;49.418;8.728;2023-02-28T02:25:19;0.90;99.90
23562;DHT22;11959;49.418;8.728;2023-02-28T02:27:57;0.80;99.90
23562;DHT22;11959;49.418;8.728;2023-02-28T02:30:45;0.90;99.90
23562;DHT22;11959;49.418;8.728;2023-02-28T02:41:45;0.90;99.90
23562;DHT22;11959;49.418;8.728;2023-02-28T02:44:23;0.90;99.90
23562;DHT22;11959;49.418;8.728;2023-02-28T02:46:58;0.80;99.90
23562;DHT22;11959;49.418;8.728;2023-02-28T02:49:28;0.80;99.90
23562;DHT22;11959;49.418;8.728;2023-02-28T02:52:02;0.80;99.90
23562;DHT22;11959;49.418;8.728;2023-02-28T02:54:31;0.80;99.90
23562;DHT22;11959;49.418;8.728;2023-02-28T02:57:01;0.70;99.90
23562;DHT22;11959;49.418;8.728;2023-02-28T02:59:29;0.70;99.90
23562;DHT22;11959;49.418;8.728;2023-02-28T03:02:01;0.70;99.90
23562;DHT22;11959;49.418;8.728;2023-02-28T03:04:32;0.70;99.90
23562;DHT22;11959;49.418;8.728;2023-02-28T03:06:58;0.80;99.90
23562;DHT22;11959;49.418;8.728;2023-02-28T03:09:25;0.70;99.90
23562;DHT22;11959;49.418;8.728;2023-02-28T03:11:53;0.70;99.90
23562;DHT22;11959;49.418;8.728;2023-02-28T03:14:48;0.60;99.90
23562;DHT22;11959;49.418;8.728;2023-02-28T03:17:27;0.60;99.90
23562;DHT22;11959;49.418;8.728;2023-02-28T03:23:10;0.60;99.90
23562;DHT22;11959;49.418;8.728;2023-02-28T03:31:21;0.50;99.90
23562;DHT22;11959;49.418;8.728;2023-02-28T03:34:32;0.50;99.90
23562;DHT22;11959;49.418;8.728;2023-02-28T03:37:06;0.50;99.90
23562;DHT22;11959;49.418;8.728;2023-02-28T03:40:09;0.60;99.90
23562;DHT22;11959;49.418;8.728;2023-02-28T03:42:41;0.60;99.90
23562;DHT22;11959;49.418;8.728;2023-02-28T03:45:19;0.50;99.90
23562;DHT22;11959;49.418;8.728;2023-02-28T03:50:40;0.50;99.90
23562;DHT22;11959;49.418;8.728;2023-02-28T03:53:16;0.50;99.90
23562;DHT22;11959;49.418;8.728;2023-02-28T03:55:49;0.50;99.90
23562;DHT22;11959;49.418;8.728;2023-02-28T03:59:00;0.50;99.90
23562;DHT22;11959;49.418;8.728;2023-02-28T04:01:47;0.50;99.90
23562;DHT22;11959;49.418;8.728;2023-02-28T04:04:15;0.40;99.90
23562;DHT22;11959;49.418;8.728;2023-02-28T04:06:41;0.40;99.90
23562;DHT22;11959;49.418;8.728;2023-02-28T04:09:10;0.40;99.90
23562;DHT22;11959;49.418;8.728;2023-02-28T04:11:44;0.40;99.90
23562;DHT22;11959;49.418;8.728;2023-02-28T04:14:11;0.40;99.90
23562;DHT22;11959;49.418;8.728;2023-02-28T04:16:40;0.40;99.90
23562;DHT22;11959;49.418;8.728;2023-02-28T04:19:08;0.40;99.90
23562;DHT22;11959;49.418;8.728;2023-02-28T04:21:36;0.40;99.90
23562;DHT22;11959;49.418;8.728;2023-02-28T04:24:04;0.40;99.90
23562;DHT22;11959;49.418;8.728;2023-02-28T04:26:31;0.40;99.90
23562;DHT22;11959;49.418;8.728;2023-02-28T04:28:57;0.40;99.90
23562;DHT22;11959;49.418;8.728;2023-02-28T04:31:23;0.40;99.90
23562;DHT22;11959;49.418;8.728;2023-02-28T04:33:49;0.40;99.90
23562;DHT22;11959;49.418;8.728;2023-02-28T04:36:14;0.40;99.90
23562;DHT22;11959;49.418;8.728;2023-02-28T04:38:43;0.30;99.90
23562;DHT22;11959;49.418;8.728;2023-02-28T04:41:09;0.30;99.90
23562;DHT22;11959;49.418;8.728;2023-02-28T04:43:35;0.30;99.90
23562;DHT22;11959;49.418;8.728;2023-02-28T04:46:03;0.30;99.90
23562;DHT22;11959;49.418;8.728;2023-02-28T04:48:31;0.30;99.90
23562;DHT22;11959;49.418;8.728;2023-02-28T04:51:01;0.30;99.90
23562;DHT22;11959;49.418;8.728;2023-02-28T04:53:28;0.30;99.90
23562;DHT22;11959;49.418;8.728;2023-02-28T04:55:54;0.40;99.90
23562;DHT22;11959;49.418;8.728;2023-02-28T04:58:20;0.40;99.90
23562;DHT22;11959;49.418;8.728;2023-02-28T05:00:49;0.30;99.90
23562;DHT22;11959;49.418;8.728;2023-02-28T05:03:14;0.40;99.90
23562;DHT22;11959;49.418;8.728;2023-02-28T05:05:40;0.40;99.90
23562;DHT22;11959;49.418;8.728;2023-02-28T05:08:06;0.40;99.90
23562;DHT22;11959;49.418;8.728;2023-02-28T05:10:32;0.40;99.90
23562;DHT22;11959;49.418;8.728;2023-02-28T05:12:57;0.40;99.90
23562;DHT22;11959;49.418;8.728;2023-02-28T05:15:23;0.40;99.90
23562;DHT22;11959;49.418;8.728;2023-02-28T05:17:49;0.40;99.90
23562;DHT22;11959;49.418;8.728;2023-02-28T05:20:15;0.40;99.90
23562;DHT22;11959;49.418;8.728;2023-02-28T05:22:42;0.40;99.90
23562;DHT22;11959;49.418;8.728;2023-02-28T05:25:12;0.50;99.90
23562;DHT22;11959;49.418;8.728;2023-02-28T05:27:38;0.50;99.90
23562;DHT22;11959;49.418;8.728;2023-02-28T05:30:07;0.50;99.90
23562;DHT22;11959;49.418;8.728;2023-02-28T05:32:36;0.50;99.90
23562;DHT22;11959;49.418;8.728;2023-02-28T05:35:02;0.50;99.90
23562;DHT22;11959;49.418;8.728;2023-02-28T05:37:28;0.50;99.90
23562;DHT22;11959;49.418;8.728;2023-02-28T05:39:54;0.50;99.90
23562;DHT22;11959;49.418;8.728;2023-02-28T05:42:19;0.50;99.90
23562;DHT22;11959;49.418;8.728;2023-02-28T05:44:45;0.50;99.90
23562;DHT22;11959;49.418;8.728;2023-02-28T05:47:11;0.50;99.90
23562;DHT22;11959;49.418;8.728;2023-02-28T05:49:39;0.50;99.90
23562;DHT22;11959;49.418;8.728;2023-02-28T05:52:05;0.50;99.90
23562;DHT22;11959;49.418;8.728;2023-02-28T05:54:31;0.50;99.90
23562;DHT22;11959;49.418;8.728;2023-02-28T05:56:56;0.50;99.90
23562;DHT22;11959;49.418;8.728;2023-02-28T05:59:22;0.50;99.90
23562;DHT22;11959;49.418;8.728;2023-02-28T06:01:47;0.50;99.90
23562;DHT22;11959;49.418;8.728;2023-02-28T06:04:15;0.40;99.90
23562;DHT22;11959;49.418;8.728;2023-02-28T06:06:47;0.50;99.90
23562;DHT22;11959;49.418;8.728;2023-02-28T06:09:13;0.50;99.90
23562;DHT22;11959;49.418;8.728;2023-02-28T06:11:39;0.40;99.90
23562;DHT22;11959;49.418;8.728;2023-02-28T06:14:05;0.50;99.90
23562;DHT22;11959;49.418;8.728;2023-02-28T06:16:33;0.40;99.90
23562;DHT22;11959;49.418;8.728;2023-02-28T06:19:02;0.40;99.90
23562;DHT22;11959;49.418;8.728;2023-02-28T06:21:28;0.40;99.90
23562;DHT22;11959;49.418;8.728;2023-02-28T06:23:56;0.40;99.90
23562;DHT22;11959;49.418;8.728;2023-02-28T06:26:22;0.40;99.90
23562;DHT22;11959;49.418;8.728;2023-02-28T06:28:48;0.40;99.90
23562;DHT22;11959;49.418;8.728;2023-02-28T06:31:15;0.40;99.90
23562;DHT22;11959;49.418;8.728;2023-02-28T06:33:42;0.50;99.90
23562;DHT22;11959;49.418;8.728;2023-02-28T06:36:09;0.40;99.90
23562;DHT22;11959;49.418;8.728;2023-02-28T06:38:36;0.50;99.90
23562;DHT22;11959;49.418;8.728;2023-02-28T06:41:02;0.50;99.90
23562;DHT22;11959;49.418;8.728;2023-02-28T06:43:30;0.50;99.90
23562;DHT22;11959;49.418;8.728;2023-02-28T06:45:58;0.50;99.90
23562;DHT22;11959;49.418;8.728;2023-02-28T06:48:26;0.50;99.90
23562;DHT22;11959;49.418;8.728;2023-02-28T06:50:52;0.50;99.90
23562;DHT22;11959;49.418;8.728;2023-02-28T06:53:17;0.50;99.90
23562;DHT22;11959;49.418;8.728;2023-02-28T06:55:43;0.50;99.90
23562;DHT22;11959;49.418;8.728;2023-02-28T06:58:09;0.60;99.90
23562;DHT22;11959;49.418;8.728;2023-02-28T07:00:45;0.50;99.90
23562;DHT22;11959;49.418;8.728;2023-02-28T07:03:12;0.50;99.90
23562;DHT22;11959;49.418;8.728;2023-02-28T07:05:39;0.50;99.90
23562;DHT22;11959;49.418;8.728;2023-02-28T07:08:05;0.50;99.90
23562;DHT22;11959;49.418;8.728;2023-02-28T07:10:36;0.60;99.90
23562;DHT22;11959;49.418;8.728;2023-02-28T07:13:03;0.60;99.90
23562;DHT22;11959;49.418;8.728;2023-02-28T07:15:29;0.60;99.90
23562;DHT22;11959;49.418;8.728;2023-02-28T07:17:55;0.70;99.90
23562;DHT22;11959;49.418;8.728;2023-02-28T07:20:22;0.70;99.90
23562;DHT22;11959;49.418;8.728;2023-02-28T07:22:48;0.70;99.90
23562;DHT22;11959;49.418;8.728;2023-02-28T07:25:24;0.70;99.90
23562;DHT22;11959;49.418;8.728;2023-02-28T07:27:51;0.80;99.90
23562;DHT22;11959;49.418;8.728;2023-02-28T07:30:17;0.80;99.90
23562;DHT22;11959;49.418;8.728;2023-02-28T07:32:43;0.90;99.90
23562;DHT22;11959;49.418;8.728;2023-02-28T07:35:08;0.90;99.90
23562;DHT22;11959;49.418;8.728;2023-02-28T07:37:34;0.90;99.90
23562;DHT22;11959;49.418;8.728;2023-02-28T07:40:07;0.90;99.90
23562;DHT22;11959;49.418;8.728;2023-02-28T07:42:34;1.00;99.90
23562;DHT22;11959;49.418;8.728;2023-02-28T07:45:01;1.00;99.90
23562;DHT22;11959;49.418;8.728;2023-02-28T07:47:28;1.00;99.90
23562;DHT22;11959;49.418;8.728;2023-02-28T07:49:54;1.00;99.90
23562;DHT22;11959;49.418;8.728;2023-02-28T07:52:19;1.00;99.90
23562;DHT22;11959;49.418;8.728;2023-02-28T07:54:45;1.00;99.90
23562;DHT22;11959;49.418;8.728;2023-02-28T07:57:11;1.10;99.90
23562;DHT22;11959;49.418;8.728;2023-02-28T07:59:36;1.10;99.90
23562;DHT22;11959;49.418;8.728;2023-02-28T08:02:02;1.10;99.90
23562;DHT22;11959;49.418;8.728;2023-02-28T08:04:32;1.10;99.90
23562;DHT22;11959;49.418;8.728;2023-02-28T08:06:58;1.20;99.90
23562;DHT22;11959;49.418;8.728;2023-02-28T08:09:24;1.20;99.90
23562;DHT22;11959;49.418;8.728;2023-02-28T08:11:50;1.20;99.90
23562;DHT22;11959;49.418;8.728;2023-02-28T08:14:15;1.30;99.90
23562;DHT22;11959;49.418;8.728;2023-02-28T08:16:41;1.20;99.90
23562;DHT22;11959;49.418;8.728;2023-02-28T08:19:08;1.30;99.90
23562;DHT22;11959;49.418;8.728;2023-02-28T08:21:34;1.40;99.90
23562;DHT22;11959;49.418;8.728;2023-02-28T08:24:00;1.40;99.90
23562;DHT22;11959;49.418;8.728;2023-02-28T08:26:25;1.40;99.90
23562;DHT22;11959;49.418;8.728;2023-02-28T08:28:51;1.40;99.90
23562;DHT22;11959;49.418;8.728;2023-02-28T08:31:18;1.50;99.90
23562;DHT22;11959;49.418;8.728;2023-02-28T08:33:44;1.50;99.90
23562;DHT22;11959;49.418;8.728;2023-02-28T08:36:11;1.50;99.90
23562;DHT22;11959;49.418;8.728;2023-02-28T08:38:37;1.50;99.90
23562;DHT22;11959;49.418;8.728;2023-02-28T08:41:05;1.50;99.90
23562;DHT22;11959;49.418;8.728;2023-02-28T08:43:33;1.60;99.90
23562;DHT22;11959;49.418;8.728;2023-02-28T08:45:59;1.70;99.90
23562;DHT22;11959;49.418;8.728;2023-02-28T08:48:30;1.60;99.90
23562;DHT22;11959;49.418;8.728;2023-02-28T08:53:22;1.70;99.90
23562;DHT22;11959;49.418;8.728;2023-02-28T08:56:02;1.80;99.90
23562;DHT22;11959;49.418;8.728;2023-02-28T08:58:28;1.80;99.90
23562;DHT22;11959;49.418;8.728;2023-02-28T09:00:54;1.90;99.90
23562;DHT22;11959;49.418;8.728;2023-02-28T09:03:21;1.90;99.90
23562;DHT22;11959;49.418;8.728;2023-02-28T09:05:58;1.90;99.90
23562;DHT22;11959;49.418;8.728;2023-02-28T09:08:26;2.00;99.90
23562;DHT22;11959;49.418;8.728;2023-02-28T09:10:52;2.10;99.90
23562;DHT22;11959;49.418;8.728;2023-02-28T09:13:18;2.10;99.90
23562;DHT22;11959;49.418;8.728;2023-02-28T09:15:44;2.10;99.90
23562;DHT22;11959;49.418;8.728;2023-02-28T09:18:10;2.20;99.90
23562;DHT22;11959;49.418;8.728;2023-02-28T09:20:40;2.30;99.90
23562;DHT22;11959;49.418;8.728;2023-02-28T09:23:07;2.30;99.90
23562;DHT22;11959;49.418;8.728;2023-02-28T09:25:33;2.30;99.90
23562;DHT22;11959;49.418;8.728;2023-02-28T09:27:59;2.30;99.90
23562;DHT22;11959;49.418;8.728;2023-02-28T09:30:24;2.40;99.90
23562;DHT22;11959;49.418;8.728;2023-02-28T09:32:50;2.50;99.90
23562;DHT22;11959;49.418;8.728;2023-02-28T09:35:23;2.50;99.90
23562;DHT22;11959;49.418;8.728;2023-02-28T09:37:50;2.60;99.90
23562;DHT22;11959;49.418;8.728;2023-02-28T09:40:17;2.60;99.90
23562;DHT22;11959;49.418;8.728;2023-02-28T09:42:47;2.70;99.90
23562;DHT22;11959;49.418;8.728;2023-02-28T09:45:22;2.70;99.90
23562;DHT22;11959;49.418;8.728;2023-02-28T09:47:50;2.70;99.90
23562;DHT22;11959;49.418;8.728;2023-02-28T09:50:19;2.80;99.90
23562;DHT22;11959;49.418;8.728;2023-02-28T09:52:49;2.80;99.90
23562;DHT22;11959;49.418;8.728;2023-02-28T09:57:44;2.80;99.90
23562;DHT22;11959;49.418;8.728;2023-02-28T10:05:27;3.10;99.90
23562;DHT22;11959;49.418;8.728;2023-02-28T10:08:01;3.10;99.90
23562;DHT22;11959;49.418;8.728;2023-02-28T10:10:45;3.20;99.90
23562;DHT22;11959;49.418;8.728;2023-02-28T10:16:00;3.40;99.90
23562;DHT22;11959;49.418;8.728;2023-02-28T10:18:57;3.40;99.90
23562;DHT22;11959;49.418;8.728;2023-02-28T10:21:28;3.50;99.90
23562;DHT22;11959;49.418;8.728;2023-02-28T10:24:03;3.60;99.90
23562;DHT22;11959;49.418;8.728;2023-02-28T10:26:31;3.60;99.90
23562;DHT22;11959;49.418;8.728;2023-02-28T10:28:57;3.70;99.90
23562;DHT22;11959;49.418;8.728;2023-02-28T10:31:23;3.70;99.90
23562;DHT22;11959;49.418;8.728;2023-02-28T10:33:49;3.80;99.90
23562;DHT22;11959;49.418;8.728;2023-02-28T10:36:17;3.90;99.90
23562;DHT22;11959;49.418;8.728;2023-02-28T10:38:45;3.90;99.90
23562;DHT22;11959;49.418;8.728;2023-02-28T10:41:14;4.00;99.90
23562;DHT22;11959;49.418;8.728;2023-02-28T10:43:42;3.90;99.90
23562;DHT22;11959;49.418;8.728;2023-02-28T10:48:34;4.10;99.90
23562;DHT22;11959;49.418;8.728;2023-02-28T10:51:02;4.20;99.90
23562;DHT22;11959;49.418;8.728;2023-02-28T10:53:58;4.30;99.90
23562;DHT22;11959;49.418;8.728;2023-02-28T10:56:25;4.40;99.90
23562;DHT22;11959;49.418;8.728;2023-02-28T10:58:57;4.30;99.90
23562;DHT22;11959;49.418;8.728;2023-02-28T11:03:53;4.40;99.90
23562;DHT22;11959;49.418;8.728;2023-02-28T11:06:39;4.50;99.90
23562;DHT22;11959;49.418;8.728;2023-02-28T11:09:18;4.60;99.90
23562;DHT22;11959;49.418;8.728;2023-02-28T11:11:46;4.60;99.90
23562;DHT22;11959;49.418;8.728;2023-02-28T11:14:21;4.70;99.90
23562;DHT22;11959;49.418;8.728;2023-02-28T11:16:48;4.70;99.90
23562;DHT22;11959;49.418;8.728;2023-02-28T11:19:25;4.70;99.90
23562;DHT22;11959;49.418;8.728;2023-02-28T11:21:57;4.70;99.90
23562;DHT22;11959;49.418;8.728;2023-02-28T11:24:33;4.70;99.90
23562;DHT22;11959;49.418;8.728;2023-02-28T11:27:01;4.70;99.90
23562;DHT22;11959;49.418;8.728;2023-02-28T11:29:29;4.70;99.90
23562;DHT22;11959;49.418;8.728;2023-02-28T11:34:37;4.70;99.90
23562;DHT22;11959;49.418;8.728;2023-02-28T11:37:04;4.80;99.90
23562;DHT22;11959;49.418;8.728;2023-02-28T11:39:32;4.80;99.90
23562;DHT22;11959;49.418;8.728;2023-02-28T11:53:19;4.80;99.90
23562;DHT22;11959;49.418;8.728;2023-02-28T11:58:58;4.90;99.90
23562;DHT22;11959;49.418;8.728;2023-02-28T12:04:17;5.00;99.90
23562;DHT22;11959;49.418;8.728;2023-02-28T12:10:02;5.20;99.90
23562;DHT22;11959;49.418;8.728;2023-02-28T12:18:42;5.30;99.90
23562;DHT22;11959;49.418;8.728;2023-02-28T12:24:10;5.40;99.90
23562;DHT22;11959;49.418;8.728;2023-02-28T12:26:48;5.40;99.90
23562;DHT22;11959;49.418;8.728;2023-02-28T12:29:28;5.40;99.90
23562;DHT22;11959;49.418;8.728;2023-02-28T12:34:55;5.50;99.90
23562;DHT22;11959;49.418;8.728;2023-02-28T12:37:30;5.50;99.90
23562;DHT22;11959;49.418;8.728;2023-02-28T12:40:13;5.50;99.90
23562;DHT22;11959;49.418;8.728;2023-02-28T12:42:43;5.50;99.90
23562;DHT22;11959;49.418;8.728;2023-02-28T12:45:13;5.40;99.90
23562;DHT22;11959;49.418;8.728;2023-02-28T12:47:43;5.30;99.90
23562;DHT22;11959;49.418;8.728;2023-02-28T12:50:11;5.30;99.90
23562;DHT22;11959;49.418;8.728;2023-02-28T12:56:09;5.40;99.90
23562;DHT22;11959;49.418;8.728;2023-02-28T13:09:19;5.60;99.90
23562;DHT22;11959;49.418;8.728;2023-02-28T13:14:36;5.70;99.90
23562;DHT22;11959;49.418;8.728;2023-02-28T13:17:11;5.70;99.90
23562;DHT22;11959;49.418;8.728;2023-02-28T13:19:39;5.70;99.90
23562;DHT22;11959;49.418;8.728;2023-02-28T13:22:17;5.60;99.90
23562;DHT22;11959;49.418;8.728;2023-02-28T13:24:47;5.70;99.90
23562;DHT22;11959;49.418;8.728;2023-02-28T13:29:52;5.60;99.50
23562;DHT22;11959;49.418;8.728;2023-02-28T13:32:34;5.60;99.70
23562;DHT22;11959;49.418;8.728;2023-02-28T13:37:36;5.70;99.70
23562;DHT22;11959;49.418;8.728;2023-02-28T13:47:44;5.70;99.70
23562;DHT22;11959;49.418;8.728;2023-02-28T13:50:31;5.70;99.80
23562;DHT22;11959;49.418;8.728;2023-02-28T13:58:41;5.80;99.80
23562;DHT22;11959;49.418;8.728;2023-02-28T14:06:22;5.80;99.50
23562;DHT22;11959;49.418;8.728;2023-02-28T14:08:57;5.80;99.50
23562;DHT22;11959;49.418;8.728;2023-02-28T14:11:37;5.70;99.70
23562;DHT22;11959;49.418;8.728;2023-02-28T14:14:06;5.70;99.90
23562;DHT22;11959;49.418;8.728;2023-02-28T14:16:44;5.70;99.80
23562;DHT22;11959;49.418;8.728;2023-02-28T14:19:30;5.70;99.90
23562;DHT22;11959;49.418;8.728;2023-02-28T14:27:42;5.50;99.90
23562;DHT22;11959;49.418;8.728;2023-02-28T14:30:14;5.50;99.90
23562;DHT22;11959;49.418;8.728;2023-02-28T14:32:51;5.60;99.90
23562;DHT22;11959;49.418;8.728;2023-02-28T14:37:52;5.60;99.90
23562;DHT22;11959;49.418;8.728;2023-02-28T14:40:27;5.60;99.90
23562;DHT22;11959;49.418;8.728;2023-02-28T14:43:00;5.60;99.90
23562;DHT22;11959;49.418;8.728;2023-02-28T14:45:29;5.50;99.90
23562;DHT22;11959;49.418;8.728;2023-02-28T14:47:57;5.60;99.90
23562;DHT22;11959;49.418;8.728;2023-02-28T14:50:35;5.60;99.90
23562;DHT22;11959;49.418;8.728;2023-02-28T14:53:02;5.60;99.90
23562;DHT22;11959;49.418;8.728;2023-02-28T14:55:34;5.60;99.90
23562;DHT22;11959;49.418;8.728;2023-02-28T14:58:05;5.60;99.90
23562;DHT22;11959;49.418;8.728;2023-02-28T15:00:52;5.60;99.90
23562;DHT22;11959;49.418;8.728;2023-02-28T15:03:22;5.50;99.90
23562;DHT22;11959;49.418;8.728;2023-02-28T15:06:02;5.50;99.90
23562;DHT22;11959;49.418;8.728;2023-02-28T15:08:30;5.50;99.90
23562;DHT22;11959;49.418;8.728;2023-02-28T15:11:20;5.50;99.90
23562;DHT22;11959;49.418;8.728;2023-02-28T15:13:56;5.40;99.90
23562;DHT22;11959;49.418;8.728;2023-02-28T15:16:36;5.50;99.90
23562;DHT22;11959;49.418;8.728;2023-02-28T15:19:18;5.50;99.90
23562;DHT22;11959;49.418;8.728;2023-02-28T15:21:48;5.50;99.90
23562;DHT22;11959;49.418;8.728;2023-02-28T15:27:01;5.60;99.90
23562;DHT22;11959;49.418;8.728;2023-02-28T15:29:30;5.50;99.90
23562;DHT22;11959;49.418;8.728;2023-02-28T15:32:02;5.60;99.90
23562;DHT22;11959;49.418;8.728;2023-02-28T15:34:37;5.50;99.90
23562;DHT22;11959;49.418;8.728;2023-02-28T15:40:22;5.50;99.90
23562;DHT22;11959;49.418;8.728;2023-02-28T15:43:00;5.50;99.90
23562;DHT22;11959;49.418;8.728;2023-02-28T15:45:44;5.50;99.90
23562;DHT22;11959;49.418;8.728;2023-02-28T15:48:27;5.40;99.90
23562;DHT22;11959;49.418;8.728;2023-02-28T15:54:01;5.40;99.90
23562;DHT22;11959;49.418;8.728;2023-02-28T15:56:47;5.30;99.90
23562;DHT22;11959;49.418;8.728;2023-02-28T15:59:18;5.40;99.90
23562;DHT22;11959;49.418;8.728;2023-02-28T16:01:45;5.40;99.90
23562;DHT22;11959;49.418;8.728;2023-02-28T16:04:20;5.40;99.90
23562;DHT22;11959;49.418;8.728;2023-02-28T16:07:11;5.40;99.90
23562;DHT22;11959;49.418;8.728;2023-02-28T16:09:32;5.40;99.90
23562;DHT22;11959;49.418;8.728;2023-02-28T16:12:02;5.40;99.90
23562;DHT22;11959;49.418;8.728;2023-02-28T16:14:29;5.30;99.90
23562;DHT22;11959;49.418;8.728;2023-02-28T16:17:15;5.30;99.90
23562;DHT22;11959;49.418;8.728;2023-02-28T16:19:42;5.30;99.90
23562;DHT22;11959;49.418;8.728;2023-02-28T16:22:09;5.30;99.90
23562;DHT22;11959;49.418;8.728;2023-02-28T16:24:35;5.20;99.90
23562;DHT22;11959;49.418;8.728;2023-02-28T16:27:00;5.20;99.90
23562;DHT22;11959;49.418;8.728;2023-02-28T16:29:35;5.20;99.90
23562;DHT22;11959;49.418;8.728;2023-02-28T16:32:05;5.20;99.90
23562;DHT22;11959;49.418;8.728;2023-02-28T16:34:31;5.10;99.90
23562;DHT22;11959;49.418;8.728;2023-02-28T16:36:57;5.10;99.90
23562;DHT22;11959;49.418;8.728;2023-02-28T16:39:23;5.10;99.90
23562;DHT22;11959;49.418;8.728;2023-02-28T16:41:50;5.00;99.90
23562;DHT22;11959;49.418;8.728;2023-02-28T16:44:31;5.10;99.90
23562;DHT22;11959;49.418;8.728;2023-02-28T16:47:00;5.00;99.90
23562;DHT22;11959;49.418;8.728;2023-02-28T16:49:26;5.00;99.90
23562;DHT22;11959;49.418;8.728;2023-02-28T16:51:52;4.90;99.90
23562;DHT22;11959;49.418;8.728;2023-02-28T16:54:18;4.90;99.90
23562;DHT22;11959;49.418;8.728;2023-02-28T16:56:46;4.90;99.90
23562;DHT22;11959;49.418;8.728;2023-02-28T16:59:13;4.80;99.90
23562;DHT22;11959;49.418;8.728;2023-02-28T17:01:40;4.80;99.90
23562;DHT22;11959;49.418;8.728;2023-02-28T17:04:06;4.70;99.90
23562;DHT22;11959;49.418;8.728;2023-02-28T17:06:31;4.70;99.90
23562;DHT22;11959;49.418;8.728;2023-02-28T17:08:58;4.70;99.90
23562;DHT22;11959;49.418;8.728;2023-02-28T17:11:25;4.70;99.90
23562;DHT22;11959;49.418;8.728;2023-02-28T17:13:51;4.70;99.90
23562;DHT22;11959;49.418;8.728;2023-02-28T17:16:32;4.60;99.90
23562;DHT22;11959;49.418;8.728;2023-02-28T17:19:02;4.60;99.90
23562;DHT22;11959;49.418;8.728;2023-02-28T17:21:28;4.50;99.90
23562;DHT22;11959;49.418;8.728;2023-02-28T17:23:54;4.50;99.90
23562;DHT22;11959;49.418;8.728;2023-02-28T17:26:21;4.40;99.90
23562;DHT22;11959;49.418;8.728;2023-02-28T17:28:48;4.40;99.90
23562;DHT22;11959;49.418;8.728;2023-02-28T17:31:14;4.30;99.90
23562;DHT22;11959;49.418;8.728;2023-02-28T17:33:39;4.30;99.90
23562;DHT22;11959;49.418;8.728;2023-02-28T17:36:05;4.20;99.90
23562;DHT22;11959;49.418;8.728;2023-02-28T17:38:31;4.20;99.90
23562;DHT22;11959;49.418;8.728;2023-02-28T17:40:57;4.20;99.90
23562;DHT22;11959;49.418;8.728;2023-02-28T17:43:24;4.10;99.90
23562;DHT22;11959;49.418;8.728;2023-02-28T17:45:50;4.00;99.90
23562;DHT22;11959;49.418;8.728;2023-02-28T17:48:17;4.00;99.90
23562;DHT22;11959;49.418;8.728;2023-02-28T17:50:42;3.90;99.90
23562;DHT22;11959;49.418;8.728;2023-02-28T17:53:08;3.90;99.90
23562;DHT22;11959;49.418;8.728;2023-02-28T17:55:33;3.90;99.90
23562;DHT22;11959;49.418;8.728;2023-02-28T17:58:00;3.80;99.90
23562;DHT22;11959;49.418;8.728;2023-02-28T18:00:25;3.70;99.90
23562;DHT22;11959;49.418;8.728;2023-02-28T18:02:51;3.70;99.90
23562;DHT22;11959;49.418;8.728;2023-02-28T18:05:17;3.70;99.90
23562;DHT22;11959;49.418;8.728;2023-02-28T18:07:43;3.60;99.90
23562;DHT22;11959;49.418;8.728;2023-02-28T18:10:15;3.60;99.90
23562;DHT22;11959;49.418;8.728;2023-02-28T18:12:45;3.60;99.90
23562;DHT22;11959;49.418;8.728;2023-02-28T18:15:11;3.50;99.90
23562;DHT22;11959;49.418;8.728;2023-02-28T18:17:36;3.50;99.90
23562;DHT22;11959;49.418;8.728;2023-02-28T18:20:02;3.50;99.90
23562;DHT22;11959;49.418;8.728;2023-02-28T18:22:29;3.40;99.90